Archival Weather

Chicago O'Hare International

Chicago, Illinois (KORD)

Report from: Wednesday, February 16, 2022 6:51 AM CST
Current time: Saturday, February 4, 2023 10:23 PM CST

Current weather
Weather history
Weather forecast

Temperature8.3°C (46.9°F)
Wind chill4.5°C (40.2°F)
Dew point0.0°C (32.0°F)
Winds 15 kts (7.7 m/s, 17.3 mph) South-Southwest (200°)
Wind gusts 27 kts (13.9 m/s, 31.1 mph)
Peak wind 28 kts (14.4 m/s, 32.2 mph) South-Southwest (200°) at 06:23
Visibility10 mi. (16.1 km)
Clouds Few clouds 12,000 ft. (3,658 m)
Scattered clouds 20,000 ft. (6,096 m)
Ceiling: Broken clouds 25,000 ft. (7,620 m)
Altimeter29.82 in.Hg (1010 mB)
Relative humidity56 %
Density altitude-594 ft. (-181 m)
Sea-level pressure101.0 kPa (1010 mB, 29.83 in.Hg)
Remarks Automated weather observing station with precipitation discriminator
Flight conditions Visual Meteorological Conditions
Raw dataKORD 161251Z 20015G27KT 10SM FEW120 SCT200 BKN250 08/00 A2982 RMK AO2 PK WND 20028/1223 SLP102 T00830000
An unhandled exception has occurred. See browser dev tools for details. Reload 🗙